マドリード/バラハス の空港の天気 - METARとTAF

マドリード・バラハス国際空港 ( LEMD / MAD ) - スペイン マドリード
飛行場実況気象(Metar)
観測時間11/30 18:00 CET (11/30 17:00 UTC)
風向・風速南南東 2m/s
視程10km以上
天気現象
なし
気温10℃
湿度62%
気圧1014hPa
METARLEMD 301700Z 16003KT 140V210 CAVOK 10/03 Q1014 NOSIG
過去の天気等 Google飛行場航空写真 Wunderground天気予報

過去48時間のMETAR

飛行場予報(TAF)
発表時間: 11/30 12:00 CET (11/30 11:00 UTC)
予報対象時間: 30日13時 CET ~ 1日19時 CET
風向・風速不定 2m/s
視程10km以上
なし
30日23時 CET ~ 30日24時 CET に徐々に
風向・風速北北東 4m/s
TAF LEMD 301100Z 3012/0118 VRB04KT CAVOK TX14/0114Z TN02/0106Z
BECMG 3022/3023 02008KT